Time;durP1;ratioP1;P1;durP2;ratioP2;P2;SDS_P1;SDS_P2;PMS_P1;PMS_P2;Temp;Humidity;BMP_temperature;BMP_pressure;BME280_temperature;BME280_humidity;BME280_pressure;Samples;Min_cycle;Max_cycle;Signal;HPM_P1;HPM_P2
2022/11/14 00:00:56;;;;;;;10.13;4.43;;;9.70;82.40;;;;;;4158383;28;20491;-86
2022/11/14 00:03:16;;;;;;;8.38;5.20;;;9.80;82.10;;;;;;4154324;28;20038;-84
2022/11/14 00:05:21;;;;;;;10.45;4.90;;;9.60;82.00;;;;;;4158731;28;20787;-86
2022/11/14 00:07:41;;;;;;;9.63;5.63;;;9.70;82.00;;;;;;4153526;28;20041;-85
2022/11/14 00:10:02;;;;;;;7.97;4.97;;;9.60;82.00;;;;;;4154795;28;20034;-85
2022/11/14 00:12:23;;;;;;;8.38;4.95;;;9.60;82.00;;;;;;4157240;28;20041;-85
2022/11/14 00:14:44;;;;;;;11.35;5.50;;;9.60;81.90;;;;;;4153411;28;20056;-86
2022/11/14 00:17:04;;;;;;;8.65;5.07;;;9.50;81.80;;;;;;4157239;28;20025;-86
2022/11/14 00:19:25;;;;;;;10.75;5.05;;;9.70;82.00;;;;;;4155798;28;20103;-85
2022/11/14 00:21:45;;;;;;;11.60;5.70;;;9.50;81.80;;;;;;4159789;28;20045;-86
2022/11/14 00:24:06;;;;;;;7.53;4.85;;;9.50;81.70;;;;;;4157659;28;20025;-85
2022/11/14 00:26:27;;;;;;;10.13;5.40;;;9.40;82.20;;;;;;4155152;28;20029;-86
2022/11/14 00:28:47;;;;;;;9.57;5.47;;;9.50;81.60;;;;;;4156868;28;20029;-86
2022/11/14 00:31:09;;;;;;;11.18;6.05;;;9.50;81.40;;;;;;4158330;28;20068;-86
2022/11/14 00:33:30;;;;;;;12.18;6.32;;;9.40;81.10;;;;;;4156150;28;20026;-83
2022/11/14 00:35:55;;;;;;;8.38;5.18;;;9.20;81.00;;;;;;4157204;28;20030;-86
2022/11/14 00:38:16;;;;;;;10.77;6.45;;;9.40;81.30;;;;;;4151344;28;20052;-85
2022/11/14 00:40:36;;;;;;;12.93;5.63;;;9.20;81.30;;;;;;4155362;28;20026;-86
2022/11/14 00:42:57;;;;;;;9.90;5.22;;;9.30;81.40;;;;;;4155738;28;20034;-86
2022/11/14 00:45:17;;;;;;;12.95;6.35;;;9.40;81.40;;;;;;4153006;28;20033;-86
2022/11/14 00:47:38;;;;;;;11.15;6.20;;;9.30;81.20;;;;;;4155919;28;20041;-85
2022/11/14 00:49:59;;;;;;;15.70;6.28;;;9.30;81.20;;;;;;4154570;28;20045;-85
2022/11/14 00:52:19;;;;;;;11.45;6.20;;;9.30;81.20;;;;;;4159966;28;20041;-84
2022/11/14 00:54:40;;;;;;;13.68;7.15;;;9.30;81.10;;;;;;4155603;28;20119;-85
2022/11/14 00:57:01;;;;;;;12.55;5.88;;;9.30;81.10;;;;;;4156956;28;20114;-84
2022/11/14 00:59:21;;;;;;;12.15;5.68;;;9.40;81.00;;;;;;4157297;28;20647;-85
2022/11/14 01:01:42;;;;;;;13.57;6.45;;;9.40;81.00;;;;;;4155969;28;20025;-86
2022/11/14 01:04:03;;;;;;;12.90;6.03;;;9.40;80.90;;;;;;4157498;28;20033;-85
2022/11/14 01:06:23;;;;;;;17.10;7.18;;;9.40;80.90;;;;;;4155631;28;20525;-86
2022/11/14 01:08:44;;;;;;;13.77;7.13;;;9.50;81.00;;;;;;4167361;28;20044;-87
2022/11/14 01:11:15;;;;;;;15.48;6.97;;;9.40;80.70;;;;;;4155933;28;20525;-85
2022/11/14 01:13:35;;;;;;;11.98;6.82;;;9.40;80.70;;;;;;4167893;28;20114;-86
2022/11/14 01:15:59;;;;;;;16.13;8.35;;;9.40;80.70;;;;;;4152211;28;20495;-86
2022/11/14 01:18:21;;;;;;;14.02;7.53;;;9.30;80.30;;;;;;4155121;28;20036;-86
2022/11/14 01:20:43;;;;;;;16.10;8.48;;;9.40;80.50;;;;;;4153359;28;20026;-85
2022/11/14 01:23:03;;;;;;;11.23;6.32;;;9.30;80.40;;;;;;4156559;28;20511;-84
2022/11/14 01:25:24;;;;;;;14.73;7.05;;;9.40;80.40;;;;;;4148580;28;20034;-83
2022/11/14 01:27:43;;;;;;;15.50;7.28;;;9.40;80.30;;;;;;4156497;28;20930;-85
2022/11/14 01:30:03;;;;;;;14.77;7.05;;;9.40;80.30;;;;;;4157897;28;20071;-85
2022/11/14 01:32:22;;;;;;;12.82;7.55;;;9.40;80.20;;;;;;4153544;28;20546;-86
2022/11/14 01:34:41;;;;;;;13.18;7.60;;;9.50;80.20;;;;;;4155153;28;20811;-84
2022/11/14 01:37:00;;;;;;;18.00;8.43;;;9.40;80.00;;;;;;4154339;28;20092;-82
2022/11/14 01:39:20;;;;;;;12.98;7.13;;;9.30;79.90;;;;;;4154755;28;20447;-82
2022/11/14 01:41:39;;;;;;;12.77;7.43;;;9.30;79.90;;;;;;4166219;28;20109;-86
2022/11/14 01:43:58;;;;;;;15.55;7.70;;;9.30;79.90;;;;;;4153959;28;20109;-84
2022/11/14 01:46:22;;;;;;;10.15;6.32;;;9.40;79.90;;;;;;4151634;28;20535;-84
2022/11/14 01:48:59;;;;;;;12.23;7.22;;;9.30;79.40;;;;;;4170706;28;20160;-84
2022/11/14 01:51:35;;;;;;;14.75;6.90;;;9.30;79.40;;;;;;4153462;28;20032;-84
2022/11/14 01:53:57;;;;;;;11.23;6.95;;;9.20;79.20;;;;;;4150877;28;20179;-84
2022/11/14 01:56:19;;;;;;;13.70;7.38;;;9.20;79.20;;;;;;4156190;28;20672;-84
2022/11/14 01:58:42;;;;;;;12.80;7.90;;;9.20;79.20;;;;;;4159363;28;20044;-84
2022/11/14 02:01:02;;;;;;;14.25;8.23;;;9.20;79.10;;;;;;4166425;28;20582;-84
2022/11/14 02:03:22;;;;;;;12.88;7.00;;;9.20;79.20;;;;;;4155326;28;20092;-84
2022/11/14 02:05:45;;;;;;;13.65;7.45;;;9.30;79.20;;;;;;4158312;28;20084;-85
2022/11/14 02:08:04;;;;;;;12.38;7.32;;;9.20;79.00;;;;;;4152365;28;20044;-85
2022/11/14 02:10:23;;;;;;;14.38;8.23;;;9.20;79.20;;;;;;4159638;28;20108;-85
2022/11/14 02:12:43;;;;;;;15.45;8.63;;;9.20;79.10;;;;;;4158306;28;20078;-85
2022/11/14 02:15:03;;;;;;;17.63;8.55;;;9.20;79.00;;;;;;4159676;28;20036;-83
2022/11/14 02:17:23;;;;;;;18.73;8.80;;;9.10;78.80;;;;;;4158310;28;20416;-84
2022/11/14 02:20:03;;;;;;;18.35;8.55;;;9.20;79.00;;;;;;4157207;28;20090;-83
2022/11/14 02:22:23;;;;;;;16.92;8.80;;;9.10;78.80;;;;;;4157271;28;20095;-85
2022/11/14 02:24:43;;;;;;;14.65;8.02;;;9.10;78.80;;;;;;4159392;28;20044;-86
2022/11/14 02:27:04;;;;;;;14.75;8.50;;;9.10;78.70;;;;;;4160598;28;20113;-86
2022/11/14 02:29:23;;;;;;;19.27;9.23;;;9.20;78.30;;;;;;4159764;28;20045;-84
2022/11/14 02:31:42;;;;;;;16.85;8.63;;;9.10;78.30;;;;;;4156873;28;20114;-86
2022/11/14 02:34:02;;;;;;;20.52;9.38;;;9.00;78.20;;;;;;4157073;28;20088;-84
2022/11/14 02:36:21;;;;;;;16.90;9.68;;;9.20;78.30;;;;;;4169029;28;20056;-85
2022/11/14 02:38:41;;;;;;;17.20;8.80;;;9.10;78.20;;;;;;4168012;28;20076;-85
2022/11/14 02:41:00;;;;;;;15.77;9.02;;;9.10;78.10;;;;;;4156960;28;20133;-85
2022/11/14 02:43:20;;;;;;;17.73;8.85;;;9.10;78.00;;;;;;4158390;28;20069;-85
2022/11/14 02:45:39;;;;;;;15.93;9.30;;;9.20;78.10;;;;;;4153641;28;20099;-85
2022/11/14 02:47:58;;;;;;;20.52;9.50;;;9.10;77.90;;;;;;4157607;28;20049;-85
2022/11/14 02:50:17;;;;;;;19.45;10.77;;;9.10;77.90;;;;;;4156206;28;20079;-84
2022/11/14 02:52:37;;;;;;;20.98;10.68;;;9.10;77.80;;;;;;4156378;28;20231;-84
2022/11/14 02:54:56;;;;;;;21.98;10.20;;;9.10;77.90;;;;;;4154476;28;20056;-84
2022/11/14 02:57:15;;;;;;;22.58;11.40;;;9.10;77.80;;;;;;4160137;28;20806;-84
2022/11/14 02:59:34;;;;;;;20.27;11.70;;;9.20;77.90;;;;;;4156317;28;20505;-85
2022/11/14 03:01:53;;;;;;;22.08;12.35;;;9.10;77.80;;;;;;4155644;28;20549;-84
2022/11/14 03:04:13;;;;;;;28.35;11.65;;;9.10;77.80;;;;;;4158455;28;20032;-82
2022/11/14 03:06:32;;;;;;;23.35;13.25;;;9.10;77.80;;;;;;4156626;28;20144;-85
2022/11/14 03:08:51;;;;;;;21.70;12.90;;;9.20;77.70;;;;;;4157495;28;20564;-85
2022/11/14 03:11:10;;;;;;;21.85;12.40;;;9.10;77.50;;;;;;4170355;28;20993;-85
2022/11/14 03:13:29;;;;;;;25.40;12.48;;;9.00;77.60;;;;;;4155801;28;20096;-85
2022/11/14 03:15:49;;;;;;;25.35;12.15;;;9.00;78.10;;;;;;4151298;28;20095;-85
2022/11/14 03:18:08;;;;;;;20.75;11.93;;;9.00;77.70;;;;;;4158206;28;20119;-84
2022/11/14 03:20:27;;;;;;;23.40;11.98;;;9.10;77.80;;;;;;4157089;28;20048;-85
2022/11/14 03:22:46;;;;;;;23.20;12.85;;;9.10;77.80;;;;;;4158544;28;20071;-83
2022/11/14 03:25:06;;;;;;;25.92;13.98;;;9.00;77.70;;;;;;4156079;28;20406;-84
2022/11/14 03:27:25;;;;;;;28.92;13.27;;;8.90;77.60;;;;;;4155956;28;20039;-83
2022/11/14 03:29:44;;;;;;;23.67;12.38;;;8.90;77.80;;;;;;4157338;28;20079;-85
2022/11/14 03:32:03;;;;;;;24.88;12.13;;;8.90;77.90;;;;;;4157349;28;20125;-85
2022/11/14 03:34:23;;;;;;;24.95;12.68;;;8.90;77.90;;;;;;4154526;28;20055;-84
2022/11/14 03:36:42;;;;;;;22.23;12.05;;;9.00;78.00;;;;;;4155570;28;20056;-85
2022/11/14 03:39:01;;;;;;;22.20;12.43;;;8.90;77.80;;;;;;4158620;28;20052;-82
2022/11/14 03:41:20;;;;;;;20.63;11.73;;;8.90;77.70;;;;;;4154885;28;20029;-86
2022/11/14 03:43:39;;;;;;;26.40;12.75;;;8.90;77.70;;;;;;4154899;28;20647;-85
2022/11/14 03:45:59;;;;;;;20.63;12.50;;;8.90;77.70;;;;;;4170561;28;20041;-85
2022/11/14 03:48:19;;;;;;;24.90;12.48;;;9.00;77.80;;;;;;4154306;28;20048;-84
2022/11/14 03:50:38;;;;;;;21.15;12.77;;;8.90;77.70;;;;;;4155453;28;20301;-86
2022/11/14 03:52:58;;;;;;;21.63;12.23;;;8.90;77.70;;;;;;4155801;28;20036;-85
2022/11/14 03:55:17;;;;;;;31.70;15.00;;;8.90;77.80;;;;;;4154167;28;20537;-84
2022/11/14 03:57:36;;;;;;;28.70;14.50;;;8.90;77.70;;;;;;4154159;28;20064;-83
2022/11/14 03:59:55;;;;;;;26.55;15.10;;;8.90;77.60;;;;;;4157941;28;20041;-85
2022/11/14 04:02:14;;;;;;;26.20;13.80;;;8.90;77.50;;;;;;4154231;28;20090;-84
2022/11/14 04:04:34;;;;;;;26.48;14.13;;;8.90;77.40;;;;;;4158690;28;20090;-84
2022/11/14 04:06:53;;;;;;;26.33;14.85;;;8.90;77.30;;;;;;4153681;28;20071;-85
2022/11/14 04:09:12;;;;;;;25.30;15.40;;;8.90;77.30;;;;;;4153201;28;20044;-86
2022/11/14 04:11:31;;;;;;;26.65;15.40;;;8.90;77.20;;;;;;4162124;28;20071;-85
2022/11/14 04:13:50;;;;;;;27.27;15.45;;;8.90;77.20;;;;;;4158583;28;20094;-85
2022/11/14 04:16:09;;;;;;;30.33;15.13;;;8.90;77.20;;;;;;4159739;28;20044;-82
2022/11/14 04:18:29;;;;;;;29.60;15.68;;;8.90;77.30;;;;;;4155071;28;20040;-84
2022/11/14 04:20:48;;;;;;;29.77;16.48;;;8.90;77.30;;;;;;4156970;28;20082;-85
2022/11/14 04:23:07;;;;;;;27.15;15.93;;;8.80;77.20;;;;;;4156183;28;20060;-84
2022/11/14 04:25:27;;;;;;;29.48;16.10;;;8.90;77.30;;;;;;4152726;28;20095;-83
2022/11/14 04:27:46;;;;;;;30.42;16.08;;;8.90;77.30;;;;;;4156329;28;20076;-86
2022/11/14 04:30:06;;;;;;;25.30;14.38;;;8.80;77.30;;;;;;4154907;28;20136;-83
2022/11/14 04:32:25;;;;;;;26.23;14.55;;;8.70;77.30;;;;;;4157286;28;20486;-84
2022/11/14 04:34:45;;;;;;;27.50;14.68;;;8.70;77.30;;;;;;4156529;28;20188;-83
2022/11/14 04:37:04;;;;;;;24.92;14.77;;;8.70;77.40;;;;;;4157480;28;20060;-86
2022/11/14 04:39:23;;;;;;;28.50;15.93;;;8.70;77.30;;;;;;4151583;28;20057;-85
2022/11/14 04:41:42;;;;;;;28.83;14.65;;;8.80;77.30;;;;;;4155945;28;20463;-85
2022/11/14 04:44:01;;;;;;;37.78;15.65;;;8.80;77.40;;;;;;4165853;28;20056;-84
2022/11/14 04:46:20;;;;;;;25.77;14.57;;;8.60;77.30;;;;;;4154597;28;20280;-84
2022/11/14 04:48:39;;;;;;;28.88;16.30;;;8.60;77.40;;;;;;4156155;28;20534;-85
2022/11/14 04:50:58;;;;;;;27.83;15.60;;;8.60;77.40;;;;;;4158930;28;20292;-84
2022/11/14 04:53:18;;;;;;;29.70;14.98;;;8.60;77.40;;;;;;4149072;28;20507;-86
2022/11/14 04:55:37;;;;;;;25.40;14.68;;;8.70;77.40;;;;;;4151794;28;20417;-85
2022/11/14 04:57:57;;;;;;;28.35;14.02;;;8.70;77.40;;;;;;4156201;28;20039;-86
2022/11/14 05:00:16;;;;;;;28.38;14.75;;;8.70;77.40;;;;;;4154982;28;20129;-86
2022/11/14 05:02:35;;;;;;;30.55;15.35;;;8.60;77.30;;;;;;4154815;28;20088;-84
2022/11/14 05:04:54;;;;;;;31.90;16.45;;;8.70;77.40;;;;;;4157578;28;20040;-83
2022/11/14 05:07:14;;;;;;;28.30;15.65;;;8.60;77.50;;;;;;4153371;28;20112;-84
2022/11/14 05:09:35;;;;;;;29.25;16.50;;;8.70;77.60;;;;;;4155264;28;20521;-85
2022/11/14 05:11:54;;;;;;;30.42;15.98;;;8.60;77.50;;;;;;4156628;28;20871;-85
2022/11/14 05:14:14;;;;;;;30.50;16.40;;;8.70;77.50;;;;;;4152011;28;20044;-85
2022/11/14 05:16:33;;;;;;;29.85;16.08;;;8.60;77.50;;;;;;4158882;28;20449;-86
2022/11/14 05:18:53;;;;;;;28.65;15.77;;;8.70;77.50;;;;;;4142150;28;20081;-86
2022/11/14 05:21:14;;;;;;;34.80;18.30;;;8.60;77.40;;;;;;4161028;28;20123;-86
2022/11/14 05:23:33;;;;;;;30.30;17.10;;;8.60;77.30;;;;;;4152264;28;20119;-83
2022/11/14 05:25:34;;;;;;;28.15;17.00;;;8.70;77.50;;;;;;4153768;28;20030;-85
2022/11/14 05:27:35;;;;;;;28.40;16.05;;;8.60;77.30;;;;;;4151696;28;20384;-83
2022/11/14 05:29:36;;;;;;;31.13;17.92;;;8.70;77.40;;;;;;4155369;28;20041;-84
2022/11/14 05:31:36;;;;;;;29.50;17.92;;;8.70;77.40;;;;;;4155654;28;20037;-84
2022/11/14 05:33:38;;;;;;;35.13;18.27;;;8.60;77.30;;;;;;4152692;28;20032;-85
2022/11/14 05:35:38;;;;;;;32.20;17.63;;;8.60;77.40;;;;;;4156189;28;20736;-86
2022/11/14 05:37:41;;;;;;;32.03;18.95;;;8.60;77.50;;;;;;4143703;28;20099;-83
2022/11/14 05:39:42;;;;;;;30.13;17.08;;;8.40;77.40;;;;;;4163732;28;20087;-85
2022/11/14 05:41:43;;;;;;;34.15;19.10;;;8.60;77.70;;;;;;4148715;28;20036;-85
2022/11/14 05:43:43;;;;;;;37.58;19.35;;;8.50;77.60;;;;;;4134293;28;20137;-86
2022/11/14 05:45:44;;;;;;;30.15;17.13;;;8.50;77.50;;;;;;4152014;28;20115;-84
2022/11/14 05:47:47;;;;;;;29.83;16.83;;;8.50;77.50;;;;;;4152556;28;20029;-84
2022/11/14 05:49:48;;;;;;;;;;;8.60;77.60;;;;;;4141344;28;20121;-85
2022/11/14 05:51:49;;;;;;;34.67;18.35;;;8.60;77.50;;;;;;4155864;28;20453;-84
2022/11/14 05:53:49;;;;;;;28.40;16.40;;;8.80;77.40;;;;;;4155936;28;20039;-84
2022/11/14 05:55:50;;;;;;;30.52;16.85;;;8.60;77.30;;;;;;4156986;28;20029;-86
2022/11/14 05:57:51;;;;;;;34.63;18.35;;;8.70;77.30;;;;;;4158581;28;20503;-86
2022/11/14 05:59:52;;;;;;;30.95;16.55;;;8.70;77.30;;;;;;4156667;28;20067;-84
2022/11/14 06:01:53;;;;;;;26.98;17.00;;;8.70;77.40;;;;;;4157098;28;20025;-85
2022/11/14 06:03:53;;;;;;;32.25;17.52;;;8.70;77.50;;;;;;4168677;28;20475;-84
2022/11/14 06:05:54;;;;;;;29.52;17.08;;;8.70;77.40;;;;;;4153842;28;20033;-85
2022/11/14 06:07:56;;;;;;;28.95;17.15;;;8.60;77.20;;;;;;4156421;28;20072;-85
2022/11/14 06:09:57;;;;;;;27.27;16.53;;;8.70;77.30;;;;;;4155831;28;20088;-85
2022/11/14 06:11:58;;;;;;;30.30;17.35;;;8.70;77.30;;;;;;4155029;28;20026;-86
2022/11/14 06:13:59;;;;;;;32.45;17.85;;;8.70;77.30;;;;;;4154430;28;20517;-86
2022/11/14 06:16:00;;;;;;;30.38;17.40;;;8.70;77.30;;;;;;4156596;28;20029;-82
2022/11/14 06:18:01;;;;;;;31.27;16.33;;;8.60;78.00;;;;;;4158228;28;20283;-84
2022/11/14 06:20:03;;;;;;;31.90;16.70;;;8.60;77.20;;;;;;4172477;28;20030;-86
2022/11/14 06:22:03;;;;;;;26.10;16.60;;;8.60;77.10;;;;;;4157655;28;20026;-86
2022/11/14 06:24:05;;;;;;;30.20;15.65;;;8.60;77.10;;;;;;4162012;28;20033;-84
2022/11/14 06:26:11;;;;;;;26.85;16.02;;;8.60;77.20;;;;;;4161867;28;20049;-84
2022/11/14 06:28:12;;;;;;;27.40;15.38;;;8.70;77.20;;;;;;4157113;28;20641;-84
2022/11/14 06:30:13;;;;;;;29.17;15.82;;;8.60;77.10;;;;;;4153375;28;20021;-82
2022/11/14 06:32:13;;;;;;;28.48;15.35;;;8.60;77.10;;;;;;4156151;28;20511;-83
2022/11/14 06:34:14;;;;;;;27.60;16.50;;;8.60;77.00;;;;;;4153007;28;20022;-84
2022/11/14 06:36:15;;;;;;;27.80;16.83;;;8.70;77.10;;;;;;4159631;28;20093;-85
2022/11/14 06:38:15;;;;;;;32.30;16.73;;;8.60;76.90;;;;;;4153430;28;20022;-84
2022/11/14 06:40:16;;;;;;;28.27;16.30;;;8.60;76.90;;;;;;4152546;28;20040;-84
2022/11/14 06:42:17;;;;;;;29.38;16.17;;;8.60;76.80;;;;;;4155406;28;20025;-83
2022/11/14 06:44:17;;;;;;;29.52;16.20;;;8.60;76.90;;;;;;4159045;28;20022;-84
2022/11/14 06:46:21;;;;;;;29.50;16.25;;;8.60;76.90;;;;;;4159027;28;20037;-84
2022/11/14 06:48:21;;;;;;;;;;;8.60;77.00;;;;;;4161553;28;20531;-86
2022/11/14 06:50:22;;;;;;;31.10;15.77;;;8.60;77.00;;;;;;4158736;28;19962;-85
2022/11/14 06:52:22;;;;;;;31.30;17.02;;;8.70;76.90;;;;;;4156984;28;20463;-83
2022/11/14 06:54:23;;;;;;;28.13;16.20;;;8.70;76.90;;;;;;4158580;28;20057;-85
2022/11/14 06:56:23;;;;;;;31.90;17.15;;;8.60;76.80;;;;;;4159116;28;20095;-84
2022/11/14 06:58:26;;;;;;;28.98;16.65;;;8.60;76.90;;;;;;4157356;28;20549;-84
2022/11/14 07:00:27;;;;;;;28.50;15.57;;;8.60;76.90;;;;;;4163995;28;20026;-84
2022/11/14 07:02:28;;;;;;;28.70;15.50;;;8.60;77.00;;;;;;4162464;28;20028;-85
2022/11/14 07:04:28;;;;;;;31.67;15.75;;;8.70;77.00;;;;;;4161287;28;20029;-85
2022/11/14 07:06:30;;;;;;;25.05;15.20;;;8.60;77.00;;;;;;4144673;28;20026;-85
2022/11/14 07:08:31;;;;;;;26.17;15.70;;;8.60;76.90;;;;;;4162626;28;20037;-84
2022/11/14 07:10:31;;;;;;;30.67;17.08;;;8.70;77.00;;;;;;4176445;28;20013;-86
2022/11/14 07:12:32;;;;;;;34.10;16.15;;;8.60;76.80;;;;;;4172708;28;20120;-83
2022/11/14 07:14:33;;;;;;;26.65;16.25;;;8.70;76.90;;;;;;4156002;28;20040;-84
2022/11/14 07:16:35;;;;;;;29.85;17.05;;;8.60;76.90;;;;;;4158152;28;20041;-84
2022/11/14 07:18:35;;;;;;;27.85;16.40;;;8.60;76.90;;;;;;4159809;28;20052;-85
2022/11/14 07:20:36;;;;;;;29.05;16.58;;;8.70;77.00;;;;;;4160219;28;20085;-84
2022/11/14 07:22:37;;;;;;;28.08;15.57;;;8.60;77.00;;;;;;4163072;28;20026;-84
2022/11/14 07:24:37;;;;;;;25.42;14.88;;;8.70;77.00;;;;;;4164117;28;20612;-85
2022/11/14 07:27:28;;;;;;;31.58;17.45;;;8.70;77.00;;;;;;4159896;28;20041;-85
2022/11/14 07:29:29;;;;;;;29.77;15.98;;;8.80;77.10;;;;;;4172818;28;20025;-84
2022/11/14 07:31:29;;;;;;;28.27;16.73;;;8.80;77.00;;;;;;4157313;28;20502;-85
2022/11/14 07:34:10;;;;;;;32.83;17.98;;;8.70;76.90;;;;;;4159847;28;20091;-85
2022/11/14 07:36:31;;;;;;;29.35;15.77;;;8.50;76.70;;;;;;4142896;28;20039;-84
2022/11/14 07:38:33;;;;;;;33.67;16.85;;;8.70;77.30;;;;;;4158157;28;20041;-85
2022/11/14 07:40:59;;;;;;;30.85;17.45;;;8.60;77.30;;;;;;4159906;28;20630;-84
2022/11/14 07:43:07;;;;;;;31.27;17.52;;;8.70;77.40;;;;;;4158153;28;20026;-85
2022/11/14 07:45:09;;;;;;;29.13;16.58;;;8.70;77.50;;;;;;4176223;28;20017;-84
2022/11/14 07:47:09;;;;;;;29.00;17.20;;;8.70;77.50;;;;;;4163702;28;20486;-85
2022/11/14 07:49:16;;;;;;;32.83;16.38;;;8.70;77.50;;;;;;4162512;28;20033;-85
2022/11/14 07:51:18;;;;;;;29.42;16.88;;;8.60;77.20;;;;;;4158005;28;20045;-86
2022/11/14 07:53:19;;;;;;;27.00;15.93;;;8.70;77.10;;;;;;4158155;28;21045;-85
2022/11/14 07:55:43;;;;;;;34.75;16.23;;;8.80;77.00;;;;;;4174701;28;20287;-83
2022/11/14 07:57:43;;;;;;;31.70;17.65;;;8.70;76.90;;;;;;4157662;28;20396;-85
2022/11/14 07:59:53;;;;;;;29.27;16.95;;;8.70;76.80;;;;;;4157286;28;20164;-85
2022/11/14 08:01:54;;;;;;;32.97;17.98;;;8.70;76.90;;;;;;4158802;28;20376;-86
2022/11/14 08:03:54;;;;;;;31.45;17.98;;;8.70;76.80;;;;;;4154967;28;20032;-86
2022/11/14 08:06:29;;;;;;;30.52;16.75;;;8.80;77.00;;;;;;4155414;28;20042;-86
2022/11/14 08:08:30;;;;;;;33.55;19.13;;;8.80;77.10;;;;;;4156345;28;20148;-86
2022/11/14 08:10:31;;;;;;;35.33;18.02;;;8.60;76.90;;;;;;4158500;28;20518;-85
2022/11/14 08:12:31;;;;;;;35.10;17.88;;;8.80;77.10;;;;;;4157916;28;20048;-86
2022/11/14 08:14:33;;;;;;;35.60;19.55;;;8.80;77.30;;;;;;4156611;28;20025;-83
2022/11/14 08:16:33;;;;;;;32.90;18.33;;;8.70;77.20;;;;;;4158672;28;20125;-84
2022/11/14 08:18:34;;;;;;;37.03;18.17;;;8.80;77.40;;;;;;4160945;28;20022;-85
2022/11/14 08:20:35;;;;;;;29.75;17.48;;;8.70;77.40;;;;;;4160077;28;20044;-85
2022/11/14 08:22:35;;;;;;;34.05;17.08;;;8.60;77.50;;;;;;4158342;28;20032;-85
2022/11/14 08:24:36;;;;;;;31.98;16.73;;;8.60;77.50;;;;;;4155883;28;20032;-85
2022/11/14 08:26:38;;;;;;;28.17;16.33;;;8.60;77.50;;;;;;4157724;28;20100;-85
2022/11/14 08:28:39;;;;;;;33.20;18.63;;;8.60;77.50;;;;;;4159992;28;20064;-86
2022/11/14 08:30:39;;;;;;;28.92;17.10;;;8.60;77.50;;;;;;4155512;28;20038;-84
2022/11/14 08:32:40;;;;;;;31.77;17.48;;;8.60;77.60;;;;;;4156146;28;20037;-84
2022/11/14 08:34:40;;;;;;;30.55;17.10;;;8.80;77.60;;;;;;4157125;28;20252;-84
2022/11/14 08:36:41;;;;;;;32.75;17.88;;;8.70;77.60;;;;;;4156231;28;20029;-84
2022/11/14 08:38:42;;;;;;;29.90;16.45;;;8.70;77.60;;;;;;4158541;28;20053;-85
2022/11/14 08:40:42;;;;;;;27.58;15.60;;;8.90;77.80;;;;;;4157738;28;20113;-83
2022/11/14 08:42:43;;;;;;;33.13;17.42;;;8.70;77.60;;;;;;4157670;28;20022;-84
2022/11/14 08:44:43;;;;;;;32.58;17.45;;;8.70;77.50;;;;;;4157253;28;20049;-84
2022/11/14 08:46:44;;;;;;;31.48;16.35;;;8.70;77.50;;;;;;4156171;28;20048;-85
2022/11/14 08:48:45;;;;;;;30.50;17.13;;;8.80;77.50;;;;;;4157190;28;20022;-86
2022/11/14 08:50:45;;;;;;;31.85;17.10;;;8.80;77.40;;;;;;4172589;28;20029;-84
2022/11/14 08:52:52;;;;;;;34.70;16.73;;;8.90;77.50;;;;;;4154541;28;20423;-84
2022/11/14 08:54:53;;;;;;;33.53;17.13;;;8.80;77.40;;;;;;4156169;28;20040;-86
2022/11/14 08:56:53;;;;;;;30.77;17.17;;;8.80;77.40;;;;;;4157777;28;21305;-85
2022/11/14 08:58:54;;;;;;;33.05;18.02;;;8.80;76.70;;;;;;4141383;28;20026;-85
2022/11/14 09:01:02;;;;;;;31.23;16.92;;;8.80;77.40;;;;;;4136542;28;20739;-86
2022/11/14 09:03:14;;;;;;;29.13;17.08;;;8.80;77.30;;;;;;4158541;28;20100;-84
2022/11/14 09:05:15;;;;;;;32.00;17.05;;;8.80;77.30;;;;;;4155444;28;20033;-85
2022/11/14 09:07:16;;;;;;;27.63;16.05;;;8.70;77.20;;;;;;4157934;28;20384;-85
2022/11/14 09:09:16;;;;;;;34.53;17.90;;;8.80;77.30;;;;;;4156744;28;20061;-83
2022/11/14 09:11:17;;;;;;;33.10;16.55;;;8.80;77.40;;;;;;4158018;28;20034;-83
2022/11/14 09:13:18;;;;;;;38.78;18.83;;;8.80;77.40;;;;;;4161072;28;20029;-83
2022/11/14 09:15:19;;;;;;;30.15;17.17;;;8.70;76.90;;;;;;4160428;28;20084;-84
2022/11/14 09:17:20;;;;;;;34.88;17.45;;;8.70;76.90;;;;;;4160217;28;20136;-86
2022/11/14 09:19:21;;;;;;;32.67;16.75;;;8.70;76.80;;;;;;4167678;28;20028;-83
2022/11/14 09:21:21;;;;;;;32.72;17.38;;;8.70;76.90;;;;;;4158595;28;20037;-83
2022/11/14 09:23:32;;;;;;;31.20;17.58;;;8.70;76.90;;;;;;4160920;28;20083;-86
2022/11/14 09:25:34;;;;;;;36.97;17.80;;;8.80;77.00;;;;;;4160746;28;20400;-83
2022/11/14 09:27:35;;;;;;;34.00;17.65;;;8.80;77.00;;;;;;4163225;28;20034;-83
2022/11/14 09:29:36;;;;;;;31.98;16.90;;;8.80;76.90;;;;;;4160594;28;20042;-85
2022/11/14 09:31:36;;;;;;;31.90;18.17;;;8.80;76.90;;;;;;4161725;28;20089;-83
2022/11/14 09:33:37;;;;;;;33.50;18.13;;;8.80;76.80;;;;;;4160779;28;20550;-85
2022/11/14 09:35:47;;;;;;;33.47;18.60;;;8.70;76.60;;;;;;4158180;28;20116;-85
2022/11/14 09:37:48;;;;;;;39.55;19.02;;;8.80;76.40;;;;;;4160019;28;20091;-83
2022/11/14 09:39:54;;;;;;;32.10;16.88;;;8.70;76.40;;;;;;4158896;28;20018;-86
2022/11/14 09:42:33;;;;;;;34.47;18.15;;;8.70;76.40;;;;;;4160330;28;20032;-86
2022/11/14 09:45:24;;;;;;;38.00;18.33;;;8.70;76.40;;;;;;4107867;28;20042;-86
2022/11/14 09:47:32;;;;;;;36.90;18.50;;;8.70;76.20;;;;;;4154237;28;20083;-84
2022/11/14 09:49:39;;;;;;;38.55;18.85;;;8.90;76.40;;;;;;4170344;28;20040;-83
2022/11/14 09:51:48;;;;;;;42.25;19.35;;;8.80;76.30;;;;;;4184420;28;20036;-84
2022/11/14 09:54:24;;;;;;;40.13;19.60;;;8.80;76.40;;;;;;4156007;28;20515;-84
2022/11/14 09:56:40;;;;;;;46.15;21.00;;;8.80;76.20;;;;;;4139293;28;20455;-85
2022/11/14 09:58:41;;;;;;;37.28;19.52;;;8.70;76.00;;;;;;4156406;28;20120;-84
2022/11/14 10:00:59;;;;;;;49.05;22.33;;;8.80;76.10;;;;;;4156818;28;20059;-85
2022/11/14 10:03:43;;;;;;;;;;;;;;;;;;;;;
2022/11/14 10:06:32;;;;;;;42.05;21.70;;;8.70;76.10;;;;;;4145719;28;20450;-85
2022/11/14 10:13:03;;;;;;;41.03;20.52;;;8.70;76.30;;;;;;4141093;28;20033;-86
2022/11/14 10:15:33;;;;;;;44.15;20.75;;;8.80;76.40;;;;;;4129729;28;20416;-86
2022/11/14 10:18:06;;;;;;;42.78;20.90;;;8.80;76.60;;;;;;4158063;28;20115;-86
2022/11/14 10:20:36;;;;;;;45.38;21.63;;;8.80;76.60;;;;;;4165620;22;20751;-86
2022/11/14 10:23:46;;;;;;;44.38;20.70;;;8.60;76.20;;;;;;4142086;28;20026;-83
2022/11/14 10:26:25;;;;;;;56.92;24.80;;;8.70;76.20;;;;;;4109880;28;20029;-86
2022/11/14 10:29:03;;;;;;;47.35;22.25;;;8.70;75.80;;;;;;4157596;28;20061;-84
2022/11/14 10:31:36;;;;;;;52.13;23.52;;;8.70;76.00;;;;;;4141522;28;20025;-85
2022/11/14 10:38:30;;;;;;;51.35;22.60;;;8.70;76.20;;;;;;4101133;28;20190;-84
2022/11/14 10:41:19;;;;;;;;;;;;;;;;;;;;;
2022/11/14 10:43:37;;;;;;;52.10;23.98;;;8.70;76.30;;;;;;4122817;28;20042;-83
2022/11/14 10:46:17;;;;;;;53.95;23.35;;;8.70;76.30;;;;;;4144732;28;20100;-85
2022/11/14 10:48:45;;;;;;;52.33;24.17;;;8.70;76.20;;;;;;4083886;29;20055;-82
2022/11/14 10:51:22;;;;;;;56.00;24.23;;;8.70;76.20;;;;;;4147012;28;20034;-85
2022/11/14 10:53:45;;;;;;;59.78;24.23;;;8.70;76.20;;;;;;4125141;28;20026;-84
2022/11/14 10:55:50;;;;;;;54.50;24.83;;;8.70;76.20;;;;;;4142350;28;20030;-84
2022/11/14 10:57:51;;;;;;;53.30;23.88;;;8.80;76.20;;;;;;4144364;28;20105;-84
2022/11/14 11:00:07;;;;;;;58.67;26.20;;;8.90;76.30;;;;;;4145083;28;20073;-85
2022/11/14 11:02:08;;;;;;;54.40;24.25;;;8.70;76.20;;;;;;4147929;28;20029;-83
2022/11/14 11:04:53;;;;;;;58.13;25.42;;;8.90;76.20;;;;;;4144374;28;20176;-84
2022/11/14 11:12:04;;;;;;;53.08;24.60;;;8.80;76.00;;;;;;4146617;28;20104;-85
2022/11/14 11:14:05;;;;;;;63.20;27.73;;;8.80;75.90;;;;;;4129453;28;20065;-85
2022/11/14 11:16:10;;;;;;;61.40;26.85;;;8.70;75.70;;;;;;4144746;28;20080;-86
2022/11/14 11:18:24;;;;;;;59.58;28.02;;;8.80;75.80;;;;;;4131480;28;20072;-84
2022/11/14 11:20:38;;;;;;;;;;;8.60;75.80;;;;;;4147479;28;20037;-83
2022/11/14 11:22:39;;;;;;;54.47;26.70;;;8.70;75.60;;;;;;4126496;28;19914;-85
2022/11/14 11:25:11;;;;;;;59.40;25.75;;;8.70;75.50;;;;;;4144813;28;20502;-84
2022/11/14 11:27:19;;;;;;;51.97;25.17;;;8.60;75.10;;;;;;4135988;28;20041;-87
2022/11/14 11:29:28;;;;;;;60.38;26.95;;;8.70;75.90;;;;;;4144891;28;20096;-85
2022/11/14 11:31:52;;;;;;;68.03;27.98;;;8.70;75.00;;;;;;4126047;28;20018;-85
2022/11/14 11:33:54;;;;;;;57.92;26.77;;;8.50;74.80;;;;;;4143948;28;20091;-85
2022/11/14 11:36:12;;;;;;;57.95;25.25;;;8.60;75.10;;;;;;4130785;28;20034;-84
2022/11/14 11:38:14;;;;;;;57.80;25.30;;;8.60;75.20;;;;;;4129338;28;20078;-85
2022/11/14 11:40:22;;;;;;;59.88;27.00;;;8.50;75.20;;;;;;4127887;28;20041;-86
2022/11/14 11:42:38;;;;;;;60.53;26.27;;;8.50;75.20;;;;;;4146254;28;20104;-85
2022/11/14 11:44:46;;;;;;;57.70;26.52;;;8.50;75.30;;;;;;4140175;28;20045;-87